createdAt,value
2023-04-28T00:02:18.242Z,7.90
2023-04-28T00:04:45.767Z,7.90
2023-04-28T00:07:12.608Z,7.90
2023-04-28T00:09:39.263Z,8.00
2023-04-28T00:12:06.514Z,8.00
2023-04-28T00:14:33.241Z,7.90
2023-04-28T00:16:59.971Z,8.00
2023-04-28T00:19:26.741Z,7.90
2023-04-28T00:21:53.433Z,7.90
2023-04-28T00:24:20.375Z,7.80
2023-04-28T00:26:47.027Z,7.90
2023-04-28T00:29:13.696Z,7.90
2023-04-28T00:31:40.424Z,7.90
2023-04-28T00:34:07.209Z,7.90
2023-04-28T00:36:34.042Z,7.80
2023-04-28T00:39:00.821Z,7.80
2023-04-28T00:41:27.643Z,7.80
2023-04-28T00:43:54.384Z,7.80
2023-04-28T00:46:24.829Z,7.80
2023-04-28T00:48:51.811Z,7.80
2023-04-28T00:51:18.647Z,7.70
2023-04-28T00:53:45.602Z,7.70
2023-04-28T00:56:12.813Z,7.70
2023-04-28T00:58:39.595Z,7.70
2023-04-28T01:01:08.217Z,7.70
2023-04-28T01:03:37.953Z,7.70
2023-04-28T01:06:06.250Z,7.70
2023-04-28T01:08:35.365Z,7.70
2023-04-28T01:11:04.194Z,7.60
2023-04-28T01:13:58.974Z,7.70
2023-04-28T01:16:27.385Z,7.60
2023-04-28T01:18:55.695Z,7.60
2023-04-28T01:21:32.318Z,7.60
2023-04-28T01:24:02.174Z,7.60
2023-04-28T01:26:29.122Z,7.60
2023-04-28T01:28:55.901Z,7.60
2023-04-28T01:31:22.920Z,7.60
2023-04-28T01:33:49.748Z,7.60
2023-04-28T01:36:17.121Z,7.60
2023-04-28T01:38:43.999Z,7.60
2023-04-28T01:41:13.267Z,7.60
2023-04-28T01:43:39.996Z,7.60
2023-04-28T01:46:06.730Z,7.60
2023-04-28T01:48:33.528Z,7.60
2023-04-28T01:51:00.216Z,7.60
2023-04-28T01:53:27.067Z,7.60
2023-04-28T01:55:54.274Z,7.70
2023-04-28T01:58:21.277Z,7.60
2023-04-28T02:00:47.986Z,7.60
2023-04-28T02:03:15.862Z,7.70
2023-04-28T02:05:42.872Z,7.70
2023-04-28T02:08:09.609Z,7.60
2023-04-28T02:10:36.344Z,7.60
2023-04-28T02:13:03.050Z,7.60
2023-04-28T02:15:30.509Z,7.60
2023-04-28T02:17:57.307Z,7.70
2023-04-28T02:20:24.023Z,7.60
2023-04-28T02:22:51.122Z,7.60
2023-04-28T02:25:18.020Z,7.60
2023-04-28T02:27:44.774Z,7.60
2023-04-28T02:30:11.926Z,7.60
2023-04-28T02:32:39.241Z,7.60
2023-04-28T02:35:06.570Z,7.60
2023-04-28T02:37:33.427Z,7.70
2023-04-28T02:40:00.161Z,7.60
2023-04-28T02:42:29.109Z,7.60
2023-04-28T02:44:55.950Z,7.70
2023-04-28T02:47:22.648Z,7.70
2023-04-28T02:49:49.717Z,7.60
2023-04-28T02:52:16.502Z,7.70
2023-04-28T02:54:43.202Z,7.60
2023-04-28T02:57:10.613Z,7.60
2023-04-28T02:59:37.370Z,7.60
2023-04-28T03:02:04.116Z,7.50
2023-04-28T03:04:31.532Z,7.60
2023-04-28T03:06:58.557Z,7.50
2023-04-28T03:09:25.592Z,7.60
2023-04-28T03:11:52.310Z,7.60
2023-04-28T03:14:19.405Z,7.60
2023-04-28T03:16:46.515Z,7.60
2023-04-28T03:19:14.817Z,7.60
2023-04-28T03:21:41.962Z,7.60
2023-04-28T03:24:08.738Z,7.50
2023-04-28T03:26:36.141Z,7.50
2023-04-28T03:29:04.004Z,7.50
2023-04-28T03:31:31.141Z,7.50
2023-04-28T03:33:59.658Z,7.60
2023-04-28T03:36:27.528Z,7.60
2023-04-28T03:38:56.408Z,7.70
2023-04-28T03:41:23.153Z,7.70
2023-04-28T03:44:10.114Z,7.60
2023-04-28T03:46:45.607Z,7.60
2023-04-28T03:49:12.612Z,7.60
2023-04-28T03:51:39.612Z,7.70
2023-04-28T03:54:06.996Z,7.70
2023-04-28T03:56:34.501Z,7.70
2023-04-28T03:59:02.807Z,7.60
2023-04-28T04:01:29.451Z,7.60
2023-04-28T04:03:56.981Z,7.60
2023-04-28T04:06:23.985Z,7.60
2023-04-28T04:08:51.198Z,7.60
2023-04-28T04:11:17.997Z,7.60
2023-04-28T04:13:44.649Z,7.60
2023-04-28T04:16:17.407Z,7.50
2023-04-28T04:18:44.619Z,7.50
2023-04-28T04:21:23.152Z,7.50
2023-04-28T04:23:51.554Z,7.60
2023-04-28T04:26:18.207Z,7.60
2023-04-28T04:28:46.964Z,7.50
2023-04-28T04:31:13.840Z,7.60
2023-04-28T04:33:40.642Z,7.60
2023-04-28T04:36:07.576Z,7.60
2023-04-28T04:38:34.627Z,7.70
2023-04-28T04:41:10.490Z,7.60
2023-04-28T04:43:37.356Z,7.70
2023-04-28T04:46:04.974Z,7.70
2023-04-28T04:48:32.322Z,7.70
2023-04-28T04:50:59.079Z,7.70
2023-04-28T04:53:26.810Z,7.60
2023-04-28T04:55:55.655Z,7.50
2023-04-28T04:58:22.432Z,7.50
2023-04-28T05:01:07.727Z,7.60
2023-04-28T05:03:34.540Z,7.60
2023-04-28T05:06:02.873Z,7.50
2023-04-28T05:08:36.209Z,7.50
2023-04-28T05:11:04.128Z,7.30
2023-04-28T05:13:31.052Z,7.30
2023-04-28T05:16:01.775Z,7.30
2023-04-28T05:18:40.004Z,7.40
2023-04-28T05:21:06.821Z,7.40
2023-04-28T05:23:33.580Z,7.40
2023-04-28T05:26:00.370Z,7.40
2023-04-28T05:28:27.080Z,7.40
2023-04-28T05:30:55.457Z,7.40
2023-04-28T05:33:23.927Z,7.30
2023-04-28T05:35:50.708Z,7.30
2023-04-28T05:38:17.488Z,7.30
2023-04-28T05:40:45.267Z,7.20
2023-04-28T05:43:12.841Z,7.20
2023-04-28T05:45:39.720Z,7.30
2023-04-28T05:48:06.430Z,7.30
2023-04-28T05:50:33.630Z,7.30
2023-04-28T05:53:01.762Z,7.30
2023-04-28T05:55:29.880Z,7.40
2023-04-28T05:57:56.595Z,7.40
2023-04-28T06:00:23.301Z,7.40
2023-04-28T06:02:53.593Z,7.50
2023-04-28T06:05:21.552Z,7.60
2023-04-28T06:07:51.254Z,7.60
2023-04-28T06:10:19.373Z,7.60
2023-04-28T06:12:46.101Z,7.80
2023-04-28T06:15:12.739Z,7.80
2023-04-28T06:17:39.719Z,7.80
2023-04-28T06:20:07.639Z,7.90
2023-04-28T06:22:34.330Z,8.00
2023-04-28T06:25:01.130Z,8.10
2023-04-28T06:27:34.126Z,8.00
2023-04-28T06:30:00.924Z,7.90
2023-04-28T06:32:27.638Z,8.00
2023-04-28T06:34:55.045Z,8.00
2023-04-28T06:37:23.384Z,8.10
2023-04-28T06:39:50.037Z,8.30
2023-04-28T06:42:18.817Z,8.30
2023-04-28T06:44:52.816Z,8.50
2023-04-28T06:47:19.900Z,8.40
2023-04-28T06:49:47.256Z,8.30
2023-04-28T06:52:14.635Z,8.40
2023-04-28T06:54:41.291Z,8.50
2023-04-28T06:57:08.814Z,8.40
2023-04-28T06:59:35.677Z,8.40
2023-04-28T07:02:02.317Z,8.40
2023-04-28T07:04:29.058Z,8.20
2023-04-28T07:06:55.852Z,8.20
2023-04-28T07:09:22.767Z,8.20
2023-04-28T07:11:49.348Z,8.20
2023-04-28T07:14:16.312Z,8.20
2023-04-28T07:16:43.464Z,8.30
2023-04-28T07:19:10.375Z,8.40
2023-04-28T07:21:37.304Z,8.50
2023-04-28T07:24:04.115Z,8.70
2023-04-28T07:26:30.972Z,8.70
2023-04-28T07:28:57.592Z,8.80
2023-04-28T07:31:24.262Z,8.80
2023-04-28T07:33:51.527Z,9.00
2023-04-28T07:36:18.626Z,9.00
2023-04-28T07:38:45.359Z,9.10
2023-04-28T07:41:12.411Z,9.00
2023-04-28T07:43:39.744Z,9.10
2023-04-28T07:46:08.297Z,9.10
2023-04-28T07:48:35.618Z,9.10
2023-04-28T07:51:02.659Z,9.20
2023-04-28T07:53:29.377Z,9.10
2023-04-28T07:55:56.098Z,9.10
2023-04-28T07:58:22.819Z,9.30
2023-04-28T08:00:49.495Z,9.30
2023-04-28T08:03:16.772Z,9.30
2023-04-28T08:05:45.090Z,9.30
2023-04-28T08:08:11.801Z,9.50
2023-04-28T08:10:41.598Z,9.60
2023-04-28T08:13:08.372Z,9.50
2023-04-28T08:15:35.059Z,9.50
2023-04-28T08:18:02.143Z,9.50
2023-04-28T08:20:30.123Z,9.70
2023-04-28T08:22:56.806Z,9.70
2023-04-28T08:25:23.484Z,9.70
2023-04-28T08:27:50.153Z,9.50
2023-04-28T08:30:16.782Z,9.50
2023-04-28T08:32:43.721Z,9.50
2023-04-28T08:35:10.568Z,9.60
2023-04-28T08:37:37.383Z,9.80
2023-04-28T08:40:09.477Z,10.00
2023-04-28T08:42:40.052Z,10.30
2023-04-28T08:45:07.270Z,10.50
2023-04-28T08:47:40.327Z,10.70
2023-04-28T08:50:08.367Z,10.90
2023-04-28T08:52:36.290Z,10.90
2023-04-28T08:55:07.892Z,10.80
2023-04-28T08:57:44.709Z,10.80
2023-04-28T09:00:12.612Z,10.70
2023-04-28T09:02:42.509Z,10.80
2023-04-28T09:05:11.209Z,10.70
2023-04-28T09:07:38.180Z,10.60
2023-04-28T09:10:17.974Z,10.60
2023-04-28T09:12:44.995Z,10.50
2023-04-28T09:17:59.405Z,10.60
2023-04-28T09:20:28.361Z,10.50
2023-04-28T09:23:11.984Z,10.50
2023-04-28T09:25:38.650Z,10.60
2023-04-28T09:28:22.049Z,10.60
2023-04-28T09:30:49.003Z,10.40
2023-04-28T09:33:18.596Z,10.30
2023-04-28T09:35:47.071Z,10.30
2023-04-28T09:38:14.493Z,10.40
2023-04-28T09:40:54.164Z,10.30
2023-04-28T09:43:32.341Z,10.20
2023-04-28T09:46:02.095Z,10.00
2023-04-28T09:48:32.850Z,10.10
2023-04-28T09:51:04.494Z,10.10
2023-04-28T09:53:31.901Z,10.10
2023-04-28T09:56:00.805Z,10.10
2023-04-28T09:58:28.769Z,10.00
2023-04-28T10:01:00.574Z,10.20
2023-04-28T10:03:29.936Z,10.30
2023-04-28T10:05:58.773Z,10.40
2023-04-28T10:08:27.281Z,10.50
2023-04-28T10:10:55.267Z,10.60
2023-04-28T10:13:23.205Z,10.80
2023-04-28T10:15:51.040Z,10.80
2023-04-28T10:18:18.320Z,10.90
2023-04-28T10:20:53.341Z,10.90
2023-04-28T10:23:58.046Z,10.90
2023-04-28T10:26:36.784Z,10.90
2023-04-28T10:29:03.762Z,10.90
2023-04-28T10:31:30.475Z,10.90
2023-04-28T10:34:21.943Z,11.10
2023-04-28T10:36:50.970Z,11.20
2023-04-28T10:39:17.960Z,11.20
2023-04-28T10:41:48.784Z,11.10
2023-04-28T10:44:30.669Z,11.10
2023-04-28T10:47:04.956Z,11.10
2023-04-28T10:50:03.120Z,11.10
2023-04-28T10:52:39.584Z,11.10
2023-04-28T10:55:37.067Z,11.00
2023-04-28T10:58:16.256Z,10.90
2023-04-28T11:00:45.150Z,10.90
2023-04-28T11:03:46.608Z,11.00
2023-04-28T11:06:28.957Z,11.10
2023-04-28T11:08:57.944Z,11.10
2023-04-28T11:11:34.585Z,11.20
2023-04-28T11:14:20.031Z,11.40
2023-04-28T11:16:52.427Z,11.60
2023-04-28T11:19:26.386Z,11.70
2023-04-28T11:21:55.929Z,11.60
2023-04-28T11:24:25.503Z,11.60
2023-04-28T11:26:54.860Z,11.50
2023-04-28T11:29:38.429Z,11.70
2023-04-28T11:32:07.890Z,11.90
2023-04-28T11:34:35.403Z,12.00
2023-04-28T11:37:02.857Z,12.10
2023-04-28T11:39:33.877Z,12.10
2023-04-28T11:42:02.889Z,12.00
2023-04-28T11:44:31.162Z,12.20
2023-04-28T11:47:00.919Z,12.40
2023-04-28T11:49:30.383Z,12.40
2023-04-28T11:52:00.076Z,12.40
2023-04-28T11:54:28.241Z,12.50
2023-04-28T11:56:57.272Z,12.60
2023-04-28T11:59:33.638Z,12.70
2023-04-28T12:02:03.146Z,12.90
2023-04-28T12:04:41.120Z,13.00
2023-04-28T12:07:16.119Z,13.40
2023-04-28T12:09:44.061Z,13.50
2023-04-28T12:12:12.963Z,13.40
2023-04-28T12:14:59.281Z,13.40
2023-04-28T12:17:41.300Z,13.60
2023-04-28T12:20:10.759Z,13.60
2023-04-28T12:22:48.692Z,13.60
2023-04-28T12:25:17.468Z,13.80
2023-04-28T12:28:02.409Z,14.00
2023-04-28T12:30:30.866Z,14.30
2023-04-28T12:32:58.015Z,14.30
2023-04-28T12:35:26.240Z,14.40
2023-04-28T12:37:53.688Z,14.80
2023-04-28T12:40:20.585Z,14.80
2023-04-28T12:42:47.309Z,14.70
2023-04-28T12:45:16.104Z,14.20
2023-04-28T12:47:43.229Z,13.90
2023-04-28T12:50:10.180Z,14.00
2023-04-28T12:52:37.426Z,14.30
2023-04-28T12:55:04.895Z,14.30
2023-04-28T12:57:31.781Z,14.50
2023-04-28T12:59:58.394Z,14.60
2023-04-28T13:02:25.450Z,14.80
2023-04-28T13:04:53.058Z,15.00
2023-04-28T13:07:20.150Z,14.90
2023-04-28T13:09:47.614Z,14.70
2023-04-28T13:12:14.960Z,14.80
2023-04-28T13:14:42.096Z,14.90
2023-04-28T13:17:09.928Z,14.90
2023-04-28T13:19:37.301Z,14.90
2023-04-28T13:22:05.757Z,14.90
2023-04-28T13:24:35.634Z,14.90
2023-04-28T13:27:03.914Z,14.70
2023-04-28T13:29:30.539Z,14.60
2023-04-28T13:31:57.241Z,14.60
2023-04-28T13:34:23.893Z,14.60
2023-04-28T13:36:53.780Z,14.50
2023-04-28T13:39:21.895Z,14.40
2023-04-28T13:41:49.382Z,14.50
2023-04-28T13:44:16.727Z,14.70
2023-04-28T13:46:43.762Z,14.60
2023-04-28T13:49:10.624Z,14.60
2023-04-28T13:51:37.588Z,14.60
2023-04-28T13:54:05.363Z,14.80
2023-04-28T13:56:32.368Z,14.90
2023-04-28T13:58:59.027Z,14.90
2023-04-28T14:01:26.167Z,14.90
2023-04-28T14:03:52.993Z,14.80
2023-04-28T14:06:19.928Z,14.70
2023-04-28T14:08:46.688Z,14.80
2023-04-28T14:11:13.592Z,14.60
2023-04-28T14:13:40.890Z,14.50
2023-04-28T14:16:08.685Z,14.50
2023-04-28T14:18:35.669Z,14.50
2023-04-28T14:21:03.152Z,14.70
2023-04-28T14:23:30.056Z,14.70
2023-04-28T14:25:57.921Z,14.60
2023-04-28T14:28:24.733Z,14.50
2023-04-28T14:30:54.358Z,14.40
2023-04-28T14:33:21.049Z,14.20
2023-04-28T14:35:47.976Z,14.20
2023-04-28T14:38:14.700Z,14.10
2023-04-28T14:40:42.833Z,14.10
2023-04-28T14:43:09.667Z,14.00
2023-04-28T14:45:37.966Z,14.10
2023-04-28T14:48:06.603Z,14.20
2023-04-28T14:50:33.455Z,14.10
2023-04-28T14:53:05.368Z,14.10
2023-04-28T14:55:32.861Z,14.10
2023-04-28T14:57:59.531Z,14.00
2023-04-28T15:00:26.172Z,13.90
2023-04-28T15:02:53.086Z,13.80
2023-04-28T15:05:20.020Z,13.80
2023-04-28T15:07:47.462Z,13.70
2023-04-28T15:10:14.132Z,13.60
2023-04-28T15:12:41.768Z,13.60
2023-04-28T15:15:08.959Z,13.60
2023-04-28T15:17:35.666Z,13.50
2023-04-28T15:20:02.317Z,13.30
2023-04-28T15:22:28.974Z,13.20
2023-04-28T15:24:55.936Z,13.20
2023-04-28T15:27:26.028Z,13.20
2023-04-28T15:29:52.694Z,13.20
2023-04-28T15:32:19.344Z,13.20
2023-04-28T15:34:46.110Z,13.40
2023-04-28T15:37:38.923Z,13.50
2023-04-28T15:40:06.577Z,13.60
2023-04-28T15:42:34.486Z,13.60
2023-04-28T15:45:02.359Z,13.70
2023-04-28T15:47:29.266Z,13.80
2023-04-28T15:49:58.756Z,13.80
2023-04-28T15:52:26.721Z,13.90
2023-04-28T15:54:55.855Z,13.90
2023-04-28T15:57:22.717Z,13.90
2023-04-28T15:59:51.480Z,14.00
2023-04-28T16:02:18.945Z,14.20
2023-04-28T16:04:46.647Z,14.30
2023-04-28T16:07:13.534Z,14.30
2023-04-28T16:09:40.419Z,14.30
2023-04-28T16:12:07.428Z,14.20
2023-04-28T16:14:34.857Z,14.20
2023-04-28T16:17:01.719Z,14.30
2023-04-28T16:19:29.458Z,14.30
2023-04-28T16:21:56.063Z,14.30
2023-04-28T16:24:22.824Z,14.30
2023-04-28T16:26:51.133Z,14.40
2023-04-28T16:29:17.795Z,14.30
2023-04-28T16:31:45.480Z,14.40
2023-04-28T16:34:12.836Z,14.40
2023-04-28T16:36:40.077Z,14.40
2023-04-28T16:39:07.198Z,14.40
2023-04-28T16:41:34.004Z,14.50
2023-04-28T16:44:00.808Z,14.40
2023-04-28T16:46:27.538Z,14.40
2023-04-28T16:48:54.242Z,14.40
2023-04-28T16:51:21.949Z,14.30
2023-04-28T16:53:48.570Z,14.30
2023-04-28T16:56:15.377Z,14.30
2023-04-28T16:58:42.047Z,14.30
2023-04-28T17:01:08.898Z,14.30
2023-04-28T17:03:41.048Z,14.30
2023-04-28T17:06:08.251Z,14.30
2023-04-28T17:08:35.129Z,14.30
2023-04-28T17:11:04.101Z,14.30
2023-04-28T17:13:33.991Z,14.30
2023-04-28T17:16:01.108Z,14.30
2023-04-28T17:18:28.444Z,14.30
2023-04-28T17:20:55.886Z,14.30
2023-04-28T17:23:22.644Z,14.40
2023-04-28T17:25:49.382Z,14.30
2023-04-28T17:28:16.125Z,14.30
2023-04-28T17:30:47.185Z,14.40
2023-04-28T17:33:15.062Z,14.40
2023-04-28T17:35:41.845Z,14.30
2023-04-28T17:38:08.740Z,14.30
2023-04-28T17:40:35.394Z,14.40
2023-04-28T17:43:03.809Z,14.40
2023-04-28T17:45:30.511Z,14.50
2023-04-28T17:48:00.108Z,14.60
2023-04-28T17:50:26.992Z,14.60
2023-04-28T17:52:54.115Z,14.70
2023-04-28T17:55:20.996Z,14.60
2023-04-28T17:57:47.683Z,14.50
2023-04-28T18:00:14.527Z,14.40
2023-04-28T18:02:41.548Z,14.40
2023-04-28T18:05:08.898Z,14.40
2023-04-28T18:07:36.218Z,14.40
2023-04-28T18:10:02.927Z,14.30
2023-04-28T18:12:29.705Z,14.20
2023-04-28T18:14:57.704Z,14.10
2023-04-28T18:17:25.906Z,14.00
2023-04-28T18:19:55.143Z,14.00
2023-04-28T18:22:21.983Z,14.00
2023-04-28T18:24:49.615Z,14.10
2023-04-28T18:27:16.654Z,14.00
2023-04-28T18:29:44.897Z,14.00
2023-04-28T18:32:14.460Z,14.00
2023-04-28T18:34:41.547Z,13.90
2023-04-28T18:37:09.209Z,13.70
2023-04-28T18:39:36.306Z,13.60
2023-04-28T18:42:04.115Z,13.50
2023-04-28T18:44:31.086Z,13.50
2023-04-28T18:46:58.334Z,13.40
2023-04-28T18:49:25.600Z,13.40
2023-04-28T18:51:52.230Z,13.30
2023-04-28T18:54:19.004Z,13.20
2023-04-28T18:56:46.024Z,13.20
2023-04-28T18:59:12.617Z,13.10
2023-04-28T19:01:39.485Z,13.10
2023-04-28T19:04:06.441Z,13.10
2023-04-28T19:06:33.665Z,13.00
2023-04-28T19:09:00.413Z,13.00
2023-04-28T19:11:27.054Z,13.00
2023-04-28T19:13:54.587Z,13.00
2023-04-28T19:16:21.446Z,12.90
2023-04-28T19:18:48.785Z,12.90
2023-04-28T19:21:15.725Z,12.90
2023-04-28T19:23:43.145Z,12.80
2023-04-28T19:26:09.953Z,12.80
2023-04-28T19:28:36.700Z,12.80
2023-04-28T19:31:04.250Z,12.80
2023-04-28T19:33:30.920Z,12.70
2023-04-28T19:35:58.283Z,12.70
2023-04-28T19:38:25.045Z,12.70
2023-04-28T19:40:58.985Z,12.60
2023-04-28T19:43:25.609Z,12.70
2023-04-28T19:45:52.332Z,12.60
2023-04-28T19:48:19.673Z,12.70
2023-04-28T19:50:46.536Z,12.60
2023-04-28T19:53:13.525Z,12.70
2023-04-28T19:55:40.183Z,12.70
2023-04-28T19:58:07.171Z,12.70
2023-04-28T20:00:33.969Z,12.70
2023-04-28T20:03:00.912Z,12.60
2023-04-28T20:05:28.760Z,12.60
2023-04-28T20:07:56.370Z,12.60
2023-04-28T20:10:23.882Z,12.60
2023-04-28T20:12:50.789Z,12.70
2023-04-28T20:15:18.014Z,12.60
2023-04-28T20:17:44.833Z,12.70
2023-04-28T20:20:13.234Z,12.60
2023-04-28T20:22:43.376Z,12.60
2023-04-28T20:25:10.762Z,12.60
2023-04-28T20:27:37.822Z,12.50
2023-04-28T20:30:05.161Z,12.50
2023-04-28T20:32:32.211Z,12.40
2023-04-28T20:35:02.704Z,12.40
2023-04-28T20:37:29.970Z,12.30
2023-04-28T20:39:56.951Z,12.20
2023-04-28T20:42:24.784Z,12.20
2023-04-28T20:44:51.776Z,12.20
2023-04-28T20:47:18.742Z,12.20
2023-04-28T20:49:46.327Z,12.20
2023-04-28T20:52:13.637Z,12.20
2023-04-28T20:54:40.540Z,12.10
2023-04-28T20:57:09.098Z,12.10
2023-04-28T20:59:36.792Z,12.00
2023-04-28T21:02:03.697Z,12.00
2023-04-28T21:04:30.466Z,12.00
2023-04-28T21:06:57.104Z,12.00
2023-04-28T21:09:25.030Z,12.00
2023-04-28T21:11:52.181Z,12.00
2023-04-28T21:14:19.069Z,12.00
2023-04-28T21:16:45.969Z,11.90
2023-04-28T21:19:12.794Z,11.90
2023-04-28T21:21:39.513Z,12.00
2023-04-28T21:24:07.802Z,11.90
2023-04-28T21:26:34.564Z,11.90
2023-04-28T21:29:01.333Z,11.90
2023-04-28T21:31:28.142Z,11.90
2023-04-28T21:33:55.052Z,11.90
2023-04-28T21:36:21.676Z,11.80
2023-04-28T21:38:48.986Z,11.90
2023-04-28T21:41:15.800Z,11.90
2023-04-28T21:43:42.690Z,11.80
2023-04-28T21:46:09.572Z,11.90
2023-04-28T21:48:37.346Z,11.90
2023-04-28T21:51:04.320Z,11.90
2023-04-28T21:53:31.049Z,11.90
2023-04-28T21:55:57.724Z,11.90
2023-04-28T21:58:24.433Z,11.90
2023-04-28T22:00:51.466Z,11.90
2023-04-28T22:03:18.620Z,11.90
2023-04-28T22:05:45.506Z,11.90
2023-04-28T22:08:13.148Z,11.90
2023-04-28T22:10:41.187Z,11.90
2023-04-28T22:13:07.892Z,11.90
2023-04-28T22:15:34.731Z,11.90
2023-04-28T22:18:02.017Z,11.90
2023-04-28T22:20:28.877Z,11.90
2023-04-28T22:22:57.327Z,11.90
2023-04-28T22:25:23.950Z,11.90
2023-04-28T22:27:51.046Z,11.90
2023-04-28T22:30:17.952Z,11.90
2023-04-28T22:32:44.858Z,11.90
2023-04-28T22:35:16.314Z,11.90
2023-04-28T22:37:43.506Z,11.90
2023-04-28T22:40:10.985Z,11.90
2023-04-28T22:42:38.856Z,11.90
2023-04-28T22:45:06.461Z,11.80
2023-04-28T22:47:34.164Z,11.80
2023-04-28T22:50:03.289Z,11.80
2023-04-28T22:52:29.920Z,11.80
2023-04-28T22:54:56.756Z,11.80
2023-04-28T22:57:23.415Z,11.80
2023-04-28T22:59:50.440Z,11.80
2023-04-28T23:02:17.403Z,11.90
2023-04-28T23:04:44.294Z,11.90
2023-04-28T23:07:11.022Z,11.90
2023-04-28T23:09:37.770Z,11.80
2023-04-28T23:12:04.857Z,11.90
2023-04-28T23:14:33.001Z,11.90
2023-04-28T23:16:59.810Z,11.90
2023-04-28T23:19:26.424Z,11.80
2023-04-28T23:21:54.283Z,11.80
2023-04-28T23:24:21.030Z,11.80
2023-04-28T23:26:47.748Z,11.80
2023-04-28T23:29:14.375Z,11.80
2023-04-28T23:31:41.149Z,11.80
2023-04-28T23:34:08.219Z,11.80
2023-04-28T23:36:35.952Z,11.80
2023-04-28T23:39:02.629Z,11.70
2023-04-28T23:41:29.331Z,11.70
2023-04-28T23:43:56.715Z,11.70
2023-04-28T23:46:23.758Z,11.80
2023-04-28T23:48:50.601Z,11.70
2023-04-28T23:51:17.231Z,11.70
2023-04-28T23:53:44.223Z,11.70
2023-04-28T23:56:10.921Z,11.70
2023-04-28T23:58:38.366Z,11.70
